createdAt,value
2018-01-15T00:01:19.966Z,68.50
2018-01-15T00:03:49.088Z,68.80
2018-01-15T00:06:18.214Z,67.80
2018-01-15T00:08:47.345Z,68.10
2018-01-15T00:11:15.692Z,68.10
2018-01-15T00:13:44.806Z,67.90
2018-01-15T00:16:13.882Z,68.00
2018-01-15T00:18:42.244Z,68.00
2018-01-15T00:21:10.558Z,67.80
2018-01-15T00:23:38.926Z,67.40
2018-01-15T00:26:07.219Z,67.50
2018-01-15T00:28:35.823Z,67.40
2018-01-15T00:31:04.140Z,67.60
2018-01-15T00:33:33.202Z,67.60
2018-01-15T00:36:01.542Z,67.40
2018-01-15T00:38:30.612Z,67.50
2018-01-15T00:40:58.954Z,67.50
2018-01-15T00:43:28.026Z,67.90
2018-01-15T00:45:56.525Z,67.90
2018-01-15T00:48:24.827Z,67.80
2018-01-15T00:50:53.902Z,67.20
2018-01-15T00:53:22.234Z,67.40
2018-01-15T00:55:51.344Z,67.40
2018-01-15T00:58:20.447Z,67.10
2018-01-15T01:00:49.535Z,67.30
2018-01-15T01:03:17.878Z,67.40
2018-01-15T01:05:46.182Z,67.50
2018-01-15T01:08:14.670Z,67.60
2018-01-15T01:10:42.966Z,67.70
2018-01-15T01:13:11.282Z,68.00
2018-01-15T01:15:39.675Z,69.00
2018-01-15T01:18:07.998Z,68.20
2018-01-15T01:20:37.114Z,68.70
2018-01-15T01:23:06.171Z,68.90
2018-01-15T01:25:34.510Z,68.90
2018-01-15T01:28:03.581Z,69.20
2018-01-15T01:30:31.928Z,69.20
2018-01-15T01:33:00.246Z,69.10
2018-01-15T01:35:28.578Z,69.20
2018-01-15T01:37:57.648Z,69.10
2018-01-15T01:40:25.987Z,69.10
2018-01-15T01:42:55.484Z,68.90
2018-01-15T01:45:24.564Z,69.70
2018-01-15T01:47:52.894Z,69.50
2018-01-15T01:50:21.970Z,69.20
2018-01-15T01:52:50.318Z,69.20
2018-01-15T01:55:18.652Z,68.90
2018-01-15T01:57:48.563Z,68.80
2018-01-15T02:00:16.859Z,68.80
2018-01-15T02:02:45.194Z,68.60
2018-01-15T02:05:14.270Z,69.20
2018-01-15T02:07:44.123Z,69.80
2018-01-15T02:10:13.199Z,69.60
2018-01-15T02:12:41.564Z,69.50
2018-01-15T02:15:10.049Z,69.60
2018-01-15T02:17:38.361Z,69.50
2018-01-15T02:20:06.659Z,69.40
2018-01-15T02:22:34.990Z,70.10
2018-01-15T02:25:03.325Z,70.40
2018-01-15T02:27:31.624Z,70.10
2018-01-15T02:29:59.958Z,69.90
2018-01-15T02:32:29.035Z,70.40
2018-01-15T02:34:57.331Z,70.30
2018-01-15T02:37:26.445Z,71.50
2018-01-15T02:39:55.505Z,70.40
2018-01-15T02:42:23.846Z,70.20
2018-01-15T02:44:52.931Z,70.00
2018-01-15T02:47:21.275Z,69.70
2018-01-15T02:49:49.574Z,69.20
2018-01-15T02:52:17.902Z,69.30
2018-01-15T02:54:46.214Z,69.50
2018-01-15T02:57:15.288Z,69.40
2018-01-15T02:59:43.823Z,69.40
2018-01-15T03:02:12.887Z,70.00
2018-01-15T03:04:41.182Z,70.00
2018-01-15T03:07:09.528Z,70.00
2018-01-15T03:09:37.866Z,69.70
2018-01-15T03:12:06.159Z,69.50
2018-01-15T03:14:35.982Z,69.80
2018-01-15T03:17:04.331Z,69.80
2018-01-15T03:19:32.631Z,70.00
2018-01-15T03:22:00.979Z,69.80
2018-01-15T03:24:30.060Z,69.70
2018-01-15T03:26:58.378Z,69.60
2018-01-15T03:29:27.447Z,69.70
2018-01-15T03:31:56.998Z,70.30
2018-01-15T03:34:26.082Z,69.40
2018-01-15T03:36:54.374Z,69.40
2018-01-15T03:39:24.223Z,69.70
2018-01-15T03:41:53.326Z,69.70
2018-01-15T03:44:22.402Z,70.00
2018-01-15T03:46:50.698Z,70.00
2018-01-15T03:49:19.026Z,69.40
2018-01-15T03:51:48.102Z,69.60
2018-01-15T03:54:16.471Z,69.60
2018-01-15T03:56:44.767Z,69.60
2018-01-15T03:59:13.127Z,69.40
2018-01-15T04:01:41.423Z,69.30
2018-01-15T04:04:09.762Z,69.70
2018-01-15T04:06:38.075Z,69.10
2018-01-15T04:09:07.191Z,68.70
2018-01-15T04:11:36.270Z,69.30
2018-01-15T04:14:05.368Z,69.90
2018-01-15T04:16:35.227Z,68.70
2018-01-15T04:19:04.435Z,68.80
2018-01-15T04:21:33.505Z,69.10
2018-01-15T04:26:24.986Z,68.30
2018-01-15T04:28:54.075Z,68.20
2018-01-15T04:31:23.924Z,68.60
2018-01-15T04:33:53.002Z,68.80
2018-01-15T04:36:21.371Z,68.80
2018-01-15T04:38:49.688Z,68.70
2018-01-15T04:41:18.019Z,68.50
2018-01-15T04:43:46.558Z,67.70
2018-01-15T04:46:14.858Z,67.90
2018-01-15T04:48:43.926Z,68.60
2018-01-15T04:51:12.258Z,68.60
2018-01-15T04:53:42.102Z,68.80
2018-01-15T04:56:11.170Z,68.40
2018-01-15T04:58:39.505Z,68.30
2018-01-15T05:01:08.674Z,68.10
2018-01-15T05:03:36.974Z,68.00
2018-01-15T05:06:05.286Z,68.30
2018-01-15T05:08:34.414Z,68.20
2018-01-15T05:11:03.710Z,68.40
2018-01-15T05:13:32.810Z,68.70
2018-01-15T05:16:01.924Z,68.40
2018-01-15T05:18:30.999Z,69.00
2018-01-15T05:20:59.559Z,68.30
2018-01-15T05:23:27.855Z,68.40
2018-01-15T05:25:56.167Z,68.20
2018-01-15T05:28:24.554Z,68.00
2018-01-15T05:30:52.856Z,68.00
2018-01-15T05:33:21.186Z,68.30
2018-01-15T05:35:50.255Z,68.60
2018-01-15T05:38:20.121Z,68.60
2018-01-15T05:43:26.080Z,68.60
2018-01-15T05:45:54.407Z,68.60
2018-01-15T05:48:23.711Z,69.40
2018-01-15T05:50:52.782Z,68.90
2018-01-15T05:53:21.083Z,68.90
2018-01-15T05:55:50.199Z,68.60
2018-01-15T05:58:18.503Z,68.60
2018-01-15T06:00:48.350Z,67.70
2018-01-15T06:03:17.414Z,67.80
2018-01-15T06:05:47.226Z,68.60
2018-01-15T06:08:15.586Z,68.60
2018-01-15T06:10:43.890Z,68.70
2018-01-15T06:13:12.245Z,68.80
2018-01-15T06:15:41.341Z,68.90
2018-01-15T06:18:10.426Z,68.80
2018-01-15T06:20:38.767Z,68.80
2018-01-15T06:23:07.122Z,69.10
2018-01-15T06:25:36.231Z,69.30
2018-01-15T06:28:05.344Z,68.80
2018-01-15T06:30:34.415Z,69.30
2018-01-15T06:33:02.783Z,69.00
2018-01-15T06:35:31.094Z,68.90
2018-01-15T06:37:59.401Z,68.40
2018-01-15T06:40:27.855Z,68.40
2018-01-15T06:42:56.163Z,68.70
2018-01-15T06:45:24.471Z,68.60
2018-01-15T06:47:52.810Z,68.50
2018-01-15T06:52:56.599Z,68.10
2018-01-15T06:55:24.904Z,68.40
2018-01-15T06:57:53.217Z,68.80
2018-01-15T07:00:22.368Z,69.20
2018-01-15T07:02:50.667Z,69.10
2018-01-15T07:05:18.975Z,68.80
2018-01-15T07:07:47.308Z,68.90
2018-01-15T07:10:16.468Z,69.30
2018-01-15T07:12:44.780Z,69.20
2018-01-15T07:15:13.905Z,69.40
2018-01-15T07:17:42.980Z,69.10
2018-01-15T07:20:11.401Z,69.00
2018-01-15T07:22:40.478Z,69.40
2018-01-15T07:25:08.868Z,69.30
2018-01-15T07:27:37.162Z,69.20
2018-01-15T07:30:06.983Z,69.40
2018-01-15T07:32:35.415Z,69.40
2018-01-15T07:35:04.486Z,69.10
2018-01-15T07:37:32.795Z,69.00
2018-01-15T07:40:01.907Z,69.00
2018-01-15T07:42:31.006Z,68.80
2018-01-15T07:45:00.084Z,69.80
2018-01-15T07:47:28.438Z,69.60
2018-01-15T07:49:56.747Z,69.40
2018-01-15T07:52:25.094Z,69.40
2018-01-15T07:54:54.172Z,69.10
2018-01-15T07:57:22.488Z,69.10
2018-01-15T07:59:51.665Z,69.50
2018-01-15T08:02:19.994Z,69.00
2018-01-15T08:04:49.122Z,69.00
2018-01-15T08:07:17.438Z,68.90
2018-01-15T08:09:45.738Z,68.50
2018-01-15T08:12:14.099Z,68.50
2018-01-15T08:14:42.406Z,68.40
2018-01-15T08:17:10.708Z,68.60
2018-01-15T08:19:39.278Z,68.30
2018-01-15T08:22:07.603Z,68.80
2018-01-15T08:24:35.915Z,68.80
2018-01-15T08:27:05.030Z,68.50
2018-01-15T08:29:34.100Z,68.50
2018-01-15T08:32:02.443Z,68.50
2018-01-15T08:34:30.780Z,68.30
2018-01-15T08:36:59.147Z,68.30
2018-01-15T08:39:27.530Z,67.90
2018-01-15T08:41:55.847Z,68.30
2018-01-15T08:44:24.283Z,67.80
2018-01-15T08:46:53.370Z,67.60
2018-01-15T08:49:23.226Z,67.30
2018-01-15T08:51:51.534Z,67.30
2018-01-15T08:54:19.848Z,67.00
2018-01-15T08:56:48.271Z,67.10
2018-01-15T08:59:17.353Z,67.40
2018-01-15T09:01:46.122Z,67.40
2018-01-15T09:04:14.423Z,66.60
2018-01-15T09:06:42.722Z,66.60
2018-01-15T09:09:11.506Z,66.50
2018-01-15T09:11:39.832Z,66.40
2018-01-15T09:14:08.167Z,66.00
2018-01-15T09:16:36.519Z,66.30
2018-01-15T09:19:04.866Z,65.90
2018-01-15T09:21:33.163Z,65.40
2018-01-15T09:24:01.540Z,65.20
2018-01-15T09:26:29.842Z,64.90
2018-01-15T09:28:58.198Z,64.50
2018-01-15T09:31:27.254Z,64.00
2018-01-15T09:33:55.564Z,64.00
2018-01-15T09:36:24.025Z,64.10
2018-01-15T09:38:52.310Z,64.00
2018-01-15T09:41:21.370Z,64.00
2018-01-15T09:43:50.524Z,64.20
2018-01-15T09:46:18.830Z,64.10
2018-01-15T09:51:23.675Z,63.60
2018-01-15T09:53:52.062Z,63.50
2018-01-15T09:56:20.363Z,63.50
2018-01-15T09:58:48.707Z,63.50
2018-01-15T10:01:17.779Z,64.50
2018-01-15T10:03:46.077Z,63.50
2018-01-15T10:06:14.491Z,63.50
2018-01-15T10:08:43.558Z,64.30
2018-01-15T10:11:11.930Z,63.70
2018-01-15T10:13:40.231Z,63.50
2018-01-15T10:16:08.718Z,63.00
2018-01-15T10:18:37.045Z,62.70
2018-01-15T10:21:05.343Z,62.40
2018-01-15T10:26:03.606Z,62.20
2018-01-15T10:28:32.090Z,62.30
2018-01-15T10:31:01.164Z,62.30
2018-01-15T10:33:29.502Z,62.30
2018-01-15T10:35:57.850Z,61.80
2018-01-15T10:38:27.394Z,61.30
2018-01-15T10:40:56.462Z,61.50
2018-01-15T10:43:26.335Z,61.80
2018-01-15T10:45:54.636Z,61.70
2018-01-15T10:48:23.091Z,61.10
2018-01-15T10:50:52.158Z,61.70
2018-01-15T10:53:20.471Z,61.60
2018-01-15T10:55:48.894Z,61.50
2018-01-15T10:58:18.053Z,61.60
2018-01-15T11:00:51.249Z,61.60
2018-01-15T11:03:19.556Z,61.30
2018-01-15T11:05:47.975Z,60.90
2018-01-15T11:08:17.602Z,61.60
2018-01-15T11:10:46.676Z,61.00
2018-01-15T11:13:15.090Z,61.00
2018-01-15T11:15:43.382Z,60.70
2018-01-15T11:18:12.578Z,60.50
2018-01-15T11:20:40.867Z,60.40
2018-01-15T11:23:10.854Z,60.00
2018-01-15T11:25:39.170Z,60.00
2018-01-15T11:28:07.466Z,60.30
2018-01-15T11:30:35.803Z,60.40
2018-01-15T11:33:04.134Z,60.20
2018-01-15T11:35:32.445Z,59.90
2018-01-15T11:40:41.428Z,59.40
2018-01-15T11:43:11.221Z,59.70
2018-01-15T11:45:39.522Z,59.80
2018-01-15T11:48:07.908Z,59.30
2018-01-15T11:50:36.300Z,59.60
2018-01-15T11:53:04.594Z,59.80
2018-01-15T11:57:54.554Z,59.50
2018-01-15T12:00:23.619Z,59.30
2018-01-15T12:02:51.998Z,59.30
2018-01-15T12:05:20.394Z,59.40
2018-01-15T12:07:48.703Z,59.60
2018-01-15T12:10:17.115Z,59.40
2018-01-15T12:12:46.961Z,58.90
2018-01-15T12:15:16.017Z,59.00
2018-01-15T12:17:44.366Z,59.00
2018-01-15T12:20:12.670Z,59.10
2018-01-15T12:22:41.024Z,59.00
2018-01-15T12:25:10.092Z,58.80
2018-01-15T12:27:38.389Z,58.60
2018-01-15T12:30:06.762Z,58.20
2018-01-15T12:32:35.068Z,58.10
2018-01-15T12:35:03.424Z,58.50
2018-01-15T12:37:31.722Z,57.90
2018-01-15T12:40:00.031Z,57.90
2018-01-15T12:42:28.366Z,58.20
2018-01-15T12:44:57.433Z,58.20
2018-01-15T12:47:25.762Z,58.20
2018-01-15T12:49:54.840Z,58.10
2018-01-15T12:52:23.154Z,58.10
2018-01-15T12:54:52.258Z,57.60
2018-01-15T12:57:21.325Z,57.60
2018-01-15T12:59:49.611Z,57.50
2018-01-15T13:02:17.965Z,57.60
2018-01-15T13:07:34.690Z,57.60
2018-01-15T13:10:03.742Z,58.30
2018-01-15T13:12:32.190Z,57.70
2018-01-15T13:15:00.478Z,57.60
2018-01-15T13:17:29.694Z,57.50
2018-01-15T13:19:58.790Z,57.30
2018-01-15T13:22:27.071Z,57.30
2018-01-15T13:24:55.410Z,57.50
2018-01-15T13:27:23.762Z,57.70
2018-01-15T13:29:52.058Z,57.50
2018-01-15T13:32:21.205Z,58.40
2018-01-15T13:34:49.551Z,57.90
2018-01-15T13:37:18.671Z,57.50
2018-01-15T13:39:47.774Z,57.80
2018-01-15T13:42:17.567Z,57.70
2018-01-15T13:44:45.999Z,57.70
2018-01-15T13:47:15.069Z,57.90
2018-01-15T13:49:43.411Z,57.80
2018-01-15T13:52:12.526Z,58.10
2018-01-15T13:54:40.865Z,58.10
2018-01-15T13:57:09.207Z,58.10
2018-01-15T13:59:37.767Z,58.10
2018-01-15T14:02:06.050Z,58.30
2018-01-15T14:04:35.102Z,58.40
2018-01-15T14:07:03.802Z,58.40
2018-01-15T14:09:32.151Z,58.00
2018-01-15T14:12:01.952Z,58.10
2018-01-15T14:14:30.249Z,58.10
2018-01-15T14:16:58.581Z,58.20
2018-01-15T14:19:27.647Z,58.50
2018-01-15T14:21:55.967Z,58.50
2018-01-15T14:24:25.082Z,58.80
2018-01-15T14:26:54.144Z,59.00
2018-01-15T14:29:22.443Z,59.00
2018-01-15T14:34:18.606Z,59.00
2018-01-15T14:36:47.063Z,59.10
2018-01-15T14:39:15.356Z,59.10
2018-01-15T14:41:43.739Z,59.50
2018-01-15T14:44:12.092Z,59.20
2018-01-15T14:46:40.379Z,59.50
2018-01-15T14:49:09.474Z,59.40
2018-01-15T14:51:37.784Z,59.60
2018-01-15T14:54:06.907Z,59.70
2018-01-15T14:56:35.979Z,60.00
2018-01-15T14:59:04.262Z,60.00
2018-01-15T15:01:32.622Z,60.20
2018-01-15T15:04:00.928Z,60.30
2018-01-15T15:06:29.234Z,60.20
2018-01-15T15:08:57.584Z,60.50
2018-01-15T15:11:25.871Z,60.70
2018-01-15T15:13:54.288Z,60.50
2018-01-15T15:16:22.616Z,60.60
2018-01-15T15:18:51.726Z,60.90
2018-01-15T15:21:20.845Z,61.30
2018-01-15T15:23:49.898Z,61.30
2018-01-15T15:26:18.242Z,61.20
2018-01-15T15:28:47.323Z,61.70
2018-01-15T15:31:15.593Z,61.70
2018-01-15T15:33:43.954Z,61.70
2018-01-15T15:36:12.258Z,62.20
2018-01-15T15:38:40.590Z,62.50
2018-01-15T15:41:08.878Z,62.70
2018-01-15T15:43:37.951Z,62.60
2018-01-15T15:48:29.506Z,62.40
2018-01-15T15:50:57.802Z,62.70
2018-01-15T15:53:26.110Z,63.00
2018-01-15T15:55:54.454Z,62.90
2018-01-15T15:58:22.802Z,63.00
2018-01-15T16:00:51.868Z,63.90
2018-01-15T16:03:20.170Z,63.10
2018-01-15T16:05:48.612Z,62.90
2018-01-15T16:08:16.886Z,62.60
2018-01-15T16:10:45.960Z,62.90
2018-01-15T16:13:14.299Z,62.80
2018-01-15T16:15:43.351Z,62.60
2018-01-15T16:18:11.751Z,62.60
2018-01-15T16:20:40.006Z,62.70
2018-01-15T16:23:08.359Z,62.80
2018-01-15T16:25:37.436Z,63.00
2018-01-15T16:28:05.787Z,63.50
2018-01-15T16:30:34.082Z,63.30
2018-01-15T16:33:02.387Z,63.80
2018-01-15T16:35:30.967Z,63.60
2018-01-15T16:37:59.272Z,63.50
2018-01-15T16:40:27.606Z,63.70
2018-01-15T16:42:56.714Z,64.20
2018-01-15T16:45:25.800Z,64.00
2018-01-15T16:47:54.130Z,64.00
2018-01-15T16:50:26.174Z,64.30
2018-01-15T16:52:54.675Z,64.20
2018-01-15T16:55:22.978Z,64.10
2018-01-15T16:57:52.051Z,63.90
2018-01-15T17:00:20.387Z,64.30
2018-01-15T17:02:49.451Z,63.70
2018-01-15T17:05:17.758Z,63.60
2018-01-15T17:07:46.107Z,63.80
2018-01-15T17:10:14.407Z,63.80
2018-01-15T17:12:42.710Z,63.80
2018-01-15T17:15:11.065Z,64.00
2018-01-15T17:17:39.366Z,64.20
2018-01-15T17:20:07.687Z,64.20
2018-01-15T17:22:36.110Z,64.00
2018-01-15T17:25:05.178Z,64.10
2018-01-15T17:27:33.483Z,64.20
2018-01-15T17:30:01.845Z,64.20
2018-01-15T17:32:30.146Z,64.10
2018-01-15T17:34:58.502Z,64.20
2018-01-15T17:37:26.798Z,63.80
2018-01-15T17:39:55.142Z,63.80
2018-01-15T17:42:24.210Z,64.20
2018-01-15T17:44:52.514Z,63.90
2018-01-15T17:47:20.848Z,63.50
2018-01-15T17:49:49.923Z,63.80
2018-01-15T17:52:18.254Z,63.70
2018-01-15T17:54:47.378Z,63.60
2018-01-15T17:57:15.690Z,63.60
2018-01-15T17:59:44.038Z,63.50
2018-01-15T18:02:13.104Z,63.60
2018-01-15T18:04:41.438Z,63.50
2018-01-15T18:07:09.746Z,63.70
2018-01-15T18:09:38.095Z,63.70
2018-01-15T18:12:07.947Z,63.80
2018-01-15T18:14:37.055Z,63.60
2018-01-15T18:17:06.112Z,63.30
2018-01-15T18:19:34.415Z,63.30
2018-01-15T18:22:02.803Z,63.50
2018-01-15T18:24:31.158Z,63.70
2018-01-15T18:26:59.485Z,63.50
2018-01-15T18:29:27.821Z,63.40
2018-01-15T18:31:56.162Z,63.20
2018-01-15T18:34:24.572Z,63.00
2018-01-15T18:36:54.588Z,62.80
2018-01-15T18:39:23.095Z,62.70
2018-01-15T18:41:52.167Z,63.30
2018-01-15T18:44:20.793Z,63.20
2018-01-15T18:46:49.290Z,62.50
2018-01-15T18:49:19.136Z,62.40
2018-01-15T18:51:48.234Z,61.90
2018-01-15T18:54:17.303Z,62.30
2018-01-15T18:56:45.639Z,62.20
2018-01-15T18:59:14.748Z,62.70
2018-01-15T19:01:43.815Z,62.60
2018-01-15T19:04:12.166Z,62.50
2018-01-15T19:06:40.463Z,62.40
2018-01-15T19:09:08.774Z,62.00
2018-01-15T19:11:37.148Z,62.00
2018-01-15T19:14:05.450Z,62.50
2018-01-15T19:16:33.904Z,62.60
2018-01-15T19:19:02.955Z,61.80
2018-01-15T19:21:31.302Z,61.80
2018-01-15T19:24:00.374Z,61.80
2018-01-15T19:26:30.182Z,61.50
2018-01-15T19:28:58.519Z,61.50
2018-01-15T19:31:27.634Z,61.70
2018-01-15T19:33:55.939Z,61.60
2018-01-15T19:36:29.922Z,62.10
2018-01-15T19:39:01.597Z,61.90
2018-01-15T19:41:45.595Z,61.00
2018-01-15T19:44:25.485Z,61.50
2018-01-15T19:46:59.450Z,61.60
2018-01-15T19:49:34.178Z,61.80
2018-01-15T19:52:09.002Z,62.00
2018-01-15T19:54:42.978Z,62.00
2018-01-15T19:57:17.031Z,61.60
2018-01-15T19:59:51.022Z,61.80
2018-01-15T20:02:25.094Z,61.60
2018-01-15T20:04:59.041Z,61.70
2018-01-15T20:07:33.753Z,60.90
2018-01-15T20:10:07.784Z,61.50
2018-01-15T20:12:36.086Z,61.30
2018-01-15T20:15:04.434Z,61.20
2018-01-15T20:17:32.754Z,61.70
2018-01-15T20:20:01.094Z,61.60
2018-01-15T20:22:29.390Z,61.50
2018-01-15T20:24:57.738Z,61.60
2018-01-15T20:27:26.040Z,61.70
2018-01-15T20:29:55.116Z,61.10
2018-01-15T20:32:23.567Z,61.10
2018-01-15T20:34:51.867Z,61.30
2018-01-15T20:37:20.158Z,61.20
2018-01-15T20:39:48.494Z,61.00
2018-01-15T20:42:16.812Z,60.50
2018-01-15T20:44:45.187Z,60.90
2018-01-15T20:47:14.251Z,60.90
2018-01-15T20:49:42.605Z,60.90
2018-01-15T20:52:10.900Z,61.20
2018-01-15T20:54:39.304Z,61.10
2018-01-15T20:57:07.642Z,60.80
2018-01-15T20:59:37.443Z,60.60
2018-01-15T21:02:05.805Z,60.60
2018-01-15T21:04:34.118Z,60.60
2018-01-15T21:07:02.482Z,61.00
2018-01-15T21:09:30.850Z,60.90
2018-01-15T21:11:59.934Z,60.50
2018-01-15T21:14:29.967Z,60.60
2018-01-15T21:16:59.038Z,60.60
2018-01-15T21:19:27.346Z,60.60
2018-01-15T21:21:55.730Z,60.40
2018-01-15T21:24:24.045Z,60.00
2018-01-15T21:26:52.401Z,60.00
2018-01-15T21:29:20.709Z,60.30
2018-01-15T21:31:49.202Z,60.00
2018-01-15T21:34:17.513Z,60.30
2018-01-15T21:36:45.838Z,60.60
2018-01-15T21:39:14.172Z,60.50
2018-01-15T21:41:42.467Z,60.30
2018-01-15T21:44:12.503Z,60.00
2018-01-15T21:46:40.807Z,60.00
2018-01-15T21:49:09.875Z,59.90
2018-01-15T21:51:38.210Z,59.90
2018-01-15T21:54:07.471Z,60.00
2018-01-15T21:56:35.781Z,60.00
2018-01-15T21:59:04.069Z,60.00
2018-01-15T22:01:33.914Z,60.00
2018-01-15T22:04:03.018Z,60.40
2018-01-15T22:06:32.814Z,60.00
2018-01-15T22:09:01.159Z,60.00
2018-01-15T22:11:30.223Z,60.40
2018-01-15T22:13:58.549Z,60.30
2018-01-15T22:16:27.851Z,60.20
2018-01-15T22:18:56.935Z,59.90
2018-01-15T22:21:25.238Z,59.80
2018-01-15T22:23:53.567Z,59.90
2018-01-15T22:26:21.911Z,60.30
2018-01-15T22:28:50.241Z,60.80
2018-01-15T22:31:18.894Z,60.30
2018-01-15T22:33:48.210Z,60.30
2018-01-15T22:36:16.761Z,60.30
2018-01-15T22:38:45.319Z,60.20
2018-01-15T22:41:13.805Z,60.10
2018-01-15T22:43:42.397Z,60.20
2018-01-15T22:46:11.003Z,60.30
2018-01-15T22:48:39.749Z,60.00
2018-01-15T22:51:08.271Z,60.00
2018-01-15T22:53:37.556Z,59.60
2018-01-15T22:56:06.274Z,59.50
2018-01-15T22:58:34.780Z,59.30
2018-01-15T23:01:04.773Z,59.70
2018-01-15T23:03:34.479Z,59.70
2018-01-15T23:06:02.976Z,59.70
2018-01-15T23:08:31.331Z,59.70
2018-01-15T23:11:00.633Z,60.20
2018-01-15T23:13:29.229Z,59.70
2018-01-15T23:15:58.546Z,59.80
2018-01-15T23:18:26.936Z,60.40
2018-01-15T23:20:55.242Z,59.60
2018-01-15T23:23:24.346Z,59.80
2018-01-15T23:25:53.439Z,59.80
2018-01-15T23:28:21.738Z,59.80
2018-01-15T23:30:50.074Z,59.60
2018-01-15T23:33:18.366Z,59.80
2018-01-15T23:35:46.698Z,59.60
2018-01-15T23:38:16.507Z,59.70
2018-01-15T23:40:44.834Z,59.60
2018-01-15T23:43:14.166Z,59.60
2018-01-15T23:45:42.475Z,59.60
2018-01-15T23:48:10.771Z,59.70
2018-01-15T23:50:39.102Z,59.70
2018-01-15T23:53:08.541Z,60.10
2018-01-15T23:55:37.599Z,60.00
2018-01-15T23:58:05.930Z,59.90
